Santa Barbara, CA (93101)

8:38 PM PDT on March 22, 2017 (GMT -0700)
Westside (Gillespie) | | Change Station
Active Advisory: Beach Hazard Statement

Elev 85 ft 34.42 °N, 119.72 °W | Updated 3 seconds ago

Clear
Clear
57.6 °F
Feels Like 57.6 °F
N
9.8
Wind Variable Wind from SW
Gusts 15.0 mph

Today
High -- | Low -- °F
--% Chance of Precip.
Yesterday
High -- | Low -- °F
Precip. -- in
Pressure 29.99 in
Visibility 10.0 miles
Clouds Few 1200 ft
Dew Point 47 °F
Humidity 67%
Rainfall 0.01 in
Snow Depth Not available.
6:59 AM 7:12 PM
Waning Crescent, 27% visible
METAR KSBA 230253Z 28007KT 10SM FEW012 14/07 A2999 RMK AO2 SLP155 T01390067 53010
Pressure 29.99 in
Visibility 10.0 miles
Clouds Few 1200 ft
Dew Point 47 °F
Humidity 67%
Rainfall 0.01 in
Snow Depth Not available.
6:59 AM 7:12 PM
Waning Crescent, 27% visible
METAR KSBA 230253Z 28007KT 10SM FEW012 14/07 A2999 RMK AO2 SLP155 T01390067 53010

Get Your Daily Forecast Email!

Thanks for signing up!

Be on the lookout for a verification email in your inbox.

You'll start receiving severe weather alerts in your inbox..

×

10-Day Weather Forecast

Almanac

Astronomy

Mar. 22, 2017 Rise Set
Actual Time
Civil Twilight
Nautical Twilight
Astronomical Twilight
Moon
Length of Visible Light
Length of Day
Tomorrow will be .
, % of the Moon is Illuminated

Today's Extremes

State Highs State Lows

Community

WunderPhotos

Upload Photos

1,962,540 photos uploaded!

WunderBlog® & News

Nearby

Air Quality

  Air Quality AQ Index Pollutant
Not available.

Snow Depth

Station Depth Elevation

Earthquake Activity

City Distance Mag. Time & Date
Minimum magnitude displayed is 2.5.

Earthquake Activity

City Distance Mag. Time & Date
Minimum magnitude displayed is 2.5.

Coastal Water Temperatures

Place Temperature

Stations

Nearby Weather Stations

Station Location Temp. Windchill Dew Point Humidity Wind Precip. Elev Updated Type
                   

Watches & Warnings

Beach Hazard Statement
Issued: 3:00 PM PDT Mar. 22, 2017 – National Weather Service

... Beach hazards statement now in effect through Thursday
afternoon...

* hazards... dangerous rip currents and sneaker waves are expected
on west facing coastal areas due to elevated and strong surf of
3 to 5 feet. The highest surf is expected on Thursday.

* Impacts... there is an increased risk for ocean drowning. Rip
currents can pull swimmers and surfers out to sea. Sneaker
waves can suddenly wash people off of beaches and rock
jetties.

Precautionary/preparedness actions...

A beach hazards statement is issued when threats such as rip
currents... longshore currents... sneaker waves and other hazards
create life-threatening conditions in the surf zone. Caution
should be used when in or near the water.



Sweet/sirard